sensor_id;sensor_type;location;lat;lon;timestamp;pressure;altitude;pressure_sealevel;temperature
10058;BMP180;5068;51.286;7.518;2023-11-21T00:01:02;98727.00;;;11.10
10058;BMP180;5068;51.286;7.518;2023-11-21T00:02:36;98721.00;;;11.10
10058;BMP180;5068;51.286;7.518;2023-11-21T00:04:10;98729.00;;;11.10
10058;BMP180;5068;51.286;7.518;2023-11-21T00:05:43;98719.00;;;11.10
10058;BMP180;5068;51.286;7.518;2023-11-21T00:07:17;98736.00;;;11.10
10058;BMP180;5068;51.286;7.518;2023-11-21T00:08:49;98733.00;;;11.10
10058;BMP180;5068;51.286;7.518;2023-11-21T00:10:24;98733.00;;;11.10
10058;BMP180;5068;51.286;7.518;2023-11-21T00:11:56;98742.00;;;11.00
10058;BMP180;5068;51.286;7.518;2023-11-21T00:13:31;98738.00;;;11.00
10058;BMP180;5068;51.286;7.518;2023-11-21T00:15:05;98732.00;;;11.00
10058;BMP180;5068;51.286;7.518;2023-11-21T00:16:41;98726.00;;;11.00
10058;BMP180;5068;51.286;7.518;2023-11-21T00:18:15;98737.00;;;11.00
10058;BMP180;5068;51.286;7.518;2023-11-21T00:19:47;98733.00;;;10.90
10058;BMP180;5068;51.286;7.518;2023-11-21T00:21:20;98734.00;;;10.90
10058;BMP180;5068;51.286;7.518;2023-11-21T00:22:53;98736.00;;;10.90
10058;BMP180;5068;51.286;7.518;2023-11-21T00:24:26;98741.00;;;10.80
10058;BMP180;5068;51.286;7.518;2023-11-21T00:26:00;98738.00;;;10.80
10058;BMP180;5068;51.286;7.518;2023-11-21T00:27:33;98732.00;;;10.80
10058;BMP180;5068;51.286;7.518;2023-11-21T00:29:05;98742.00;;;10.80
10058;BMP180;5068;51.286;7.518;2023-11-21T00:30:40;98743.00;;;10.80
10058;BMP180;5068;51.286;7.518;2023-11-21T00:32:12;98743.00;;;10.70
10058;BMP180;5068;51.286;7.518;2023-11-21T00:33:45;98743.00;;;10.80
10058;BMP180;5068;51.286;7.518;2023-11-21T00:35:18;98756.00;;;10.80
10058;BMP180;5068;51.286;7.518;2023-11-21T00:36:53;98745.00;;;10.80
10058;BMP180;5068;51.286;7.518;2023-11-21T00:38:25;98746.00;;;10.80
10058;BMP180;5068;51.286;7.518;2023-11-21T00:39:59;98748.00;;;10.80
10058;BMP180;5068;51.286;7.518;2023-11-21T00:41:34;98758.00;;;10.70
10058;BMP180;5068;51.286;7.518;2023-11-21T00:43:08;98755.00;;;10.70
10058;BMP180;5068;51.286;7.518;2023-11-21T00:44:40;98758.00;;;10.70
10058;BMP180;5068;51.286;7.518;2023-11-21T00:46:14;98754.00;;;10.70
10058;BMP180;5068;51.286;7.518;2023-11-21T00:47:47;98753.00;;;10.70
10058;BMP180;5068;51.286;7.518;2023-11-21T00:49:20;98748.00;;;10.70
10058;BMP180;5068;51.286;7.518;2023-11-21T00:50:54;98745.00;;;10.70
10058;BMP180;5068;51.286;7.518;2023-11-21T00:52:28;98743.00;;;10.70
10058;BMP180;5068;51.286;7.518;2023-11-21T00:54:00;98762.00;;;10.70
10058;BMP180;5068;51.286;7.518;2023-11-21T00:55:34;98754.00;;;10.80
10058;BMP180;5068;51.286;7.518;2023-11-21T00:57:08;98751.00;;;10.80
10058;BMP180;5068;51.286;7.518;2023-11-21T00:58:43;98748.00;;;10.80
10058;BMP180;5068;51.286;7.518;2023-11-21T01:00:18;98755.00;;;10.80
10058;BMP180;5068;51.286;7.518;2023-11-21T01:01:52;98755.00;;;10.80
10058;BMP180;5068;51.286;7.518;2023-11-21T01:03:26;98752.00;;;10.80
10058;BMP180;5068;51.286;7.518;2023-11-21T01:04:59;98746.00;;;10.80
10058;BMP180;5068;51.286;7.518;2023-11-21T01:06:33;98753.00;;;10.80
10058;BMP180;5068;51.286;7.518;2023-11-21T01:08:05;98752.00;;;10.80
10058;BMP180;5068;51.286;7.518;2023-11-21T01:09:38;98754.00;;;10.80
10058;BMP180;5068;51.286;7.518;2023-11-21T01:11:11;98762.00;;;10.80
10058;BMP180;5068;51.286;7.518;2023-11-21T01:12:46;98764.00;;;10.80
10058;BMP180;5068;51.286;7.518;2023-11-21T01:14:18;98770.00;;;10.80
10058;BMP180;5068;51.286;7.518;2023-11-21T01:15:51;98760.00;;;10.70
10058;BMP180;5068;51.286;7.518;2023-11-21T01:17:24;98766.00;;;10.70
10058;BMP180;5068;51.286;7.518;2023-11-21T01:18:58;98767.00;;;10.70
10058;BMP180;5068;51.286;7.518;2023-11-21T01:20:31;98768.00;;;10.70
10058;BMP180;5068;51.286;7.518;2023-11-21T01:22:04;98768.00;;;10.70
10058;BMP180;5068;51.286;7.518;2023-11-21T01:23:37;98773.00;;;10.70
10058;BMP180;5068;51.286;7.518;2023-11-21T01:25:11;98777.00;;;10.70
10058;BMP180;5068;51.286;7.518;2023-11-21T01:26:47;98769.00;;;10.70
10058;BMP180;5068;51.286;7.518;2023-11-21T01:28:20;98776.00;;;10.70
10058;BMP180;5068;51.286;7.518;2023-11-21T01:29:54;98773.00;;;10.60
10058;BMP180;5068;51.286;7.518;2023-11-21T01:31:26;98773.00;;;10.60
10058;BMP180;5068;51.286;7.518;2023-11-21T01:33:01;98774.00;;;10.60
10058;BMP180;5068;51.286;7.518;2023-11-21T01:34:35;98775.00;;;10.60
10058;BMP180;5068;51.286;7.518;2023-11-21T01:36:10;98768.00;;;10.60
10058;BMP180;5068;51.286;7.518;2023-11-21T01:37:42;98771.00;;;10.60
10058;BMP180;5068;51.286;7.518;2023-11-21T01:39:15;98766.00;;;10.60
10058;BMP180;5068;51.286;7.518;2023-11-21T01:40:50;98774.00;;;10.60
10058;BMP180;5068;51.286;7.518;2023-11-21T01:42:23;98774.00;;;10.50
10058;BMP180;5068;51.286;7.518;2023-11-21T01:43:57;98768.00;;;10.50
10058;BMP180;5068;51.286;7.518;2023-11-21T01:45:30;98773.00;;;10.50
10058;BMP180;5068;51.286;7.518;2023-11-21T01:47:03;98772.00;;;10.50
10058;BMP180;5068;51.286;7.518;2023-11-21T01:48:37;98768.00;;;10.50
10058;BMP180;5068;51.286;7.518;2023-11-21T01:50:15;98774.00;;;10.50
10058;BMP180;5068;51.286;7.518;2023-11-21T01:51:50;98780.00;;;10.50
10058;BMP180;5068;51.286;7.518;2023-11-21T01:53:25;98775.00;;;10.50
10058;BMP180;5068;51.286;7.518;2023-11-21T01:55:00;98777.00;;;10.50
10058;BMP180;5068;51.286;7.518;2023-11-21T01:56:34;98769.00;;;10.50
10058;BMP180;5068;51.286;7.518;2023-11-21T01:58:07;98772.00;;;10.50
10058;BMP180;5068;51.286;7.518;2023-11-21T01:59:44;98780.00;;;10.50
10058;BMP180;5068;51.286;7.518;2023-11-21T02:01:17;98785.00;;;10.50
10058;BMP180;5068;51.286;7.518;2023-11-21T02:02:51;98781.00;;;10.60
10058;BMP180;5068;51.286;7.518;2023-11-21T02:04:24;98785.00;;;10.50
10058;BMP180;5068;51.286;7.518;2023-11-21T02:05:57;98777.00;;;10.50
10058;BMP180;5068;51.286;7.518;2023-11-21T02:07:31;98783.00;;;10.60
10058;BMP180;5068;51.286;7.518;2023-11-21T02:09:04;98781.00;;;10.60
10058;BMP180;5068;51.286;7.518;2023-11-21T02:10:38;98787.00;;;10.60
10058;BMP180;5068;51.286;7.518;2023-11-21T02:12:10;98779.00;;;10.60
10058;BMP180;5068;51.286;7.518;2023-11-21T02:13:44;98797.00;;;10.60
10058;BMP180;5068;51.286;7.518;2023-11-21T02:15:19;98795.00;;;10.60
10058;BMP180;5068;51.286;7.518;2023-11-21T02:16:54;98797.00;;;10.60
10058;BMP180;5068;51.286;7.518;2023-11-21T02:18:29;98797.00;;;10.60
10058;BMP180;5068;51.286;7.518;2023-11-21T02:20:05;98805.00;;;10.60
10058;BMP180;5068;51.286;7.518;2023-11-21T02:21:45;98801.00;;;10.60
10058;BMP180;5068;51.286;7.518;2023-11-21T02:23:19;98802.00;;;10.60
10058;BMP180;5068;51.286;7.518;2023-11-21T02:24:52;98813.00;;;10.60
10058;BMP180;5068;51.286;7.518;2023-11-21T02:26:24;98806.00;;;10.60
10058;BMP180;5068;51.286;7.518;2023-11-21T02:28:00;98812.00;;;10.60
10058;BMP180;5068;51.286;7.518;2023-11-21T02:29:32;98808.00;;;10.60
10058;BMP180;5068;51.286;7.518;2023-11-21T02:31:06;98814.00;;;10.60
10058;BMP180;5068;51.286;7.518;2023-11-21T02:32:39;98821.00;;;10.60
10058;BMP180;5068;51.286;7.518;2023-11-21T02:34:22;98818.00;;;10.60
10058;BMP180;5068;51.286;7.518;2023-11-21T02:35:54;98821.00;;;10.60
10058;BMP180;5068;51.286;7.518;2023-11-21T02:37:27;98821.00;;;10.60
10058;BMP180;5068;51.286;7.518;2023-11-21T02:39:01;98822.00;;;10.60
10058;BMP180;5068;51.286;7.518;2023-11-21T02:40:34;98835.00;;;10.60
10058;BMP180;5068;51.286;7.518;2023-11-21T02:42:08;98826.00;;;10.60
10058;BMP180;5068;51.286;7.518;2023-11-21T02:43:40;98826.00;;;10.60
10058;BMP180;5068;51.286;7.518;2023-11-21T02:45:14;98832.00;;;10.60
10058;BMP180;5068;51.286;7.518;2023-11-21T02:46:49;98827.00;;;10.60
10058;BMP180;5068;51.286;7.518;2023-11-21T02:48:22;98825.00;;;10.60
10058;BMP180;5068;51.286;7.518;2023-11-21T02:49:57;98826.00;;;10.60
10058;BMP180;5068;51.286;7.518;2023-11-21T02:51:32;98826.00;;;10.60
10058;BMP180;5068;51.286;7.518;2023-11-21T02:53:05;98829.00;;;10.60
10058;BMP180;5068;51.286;7.518;2023-11-21T02:54:40;98822.00;;;10.60
10058;BMP180;5068;51.286;7.518;2023-11-21T02:56:12;98817.00;;;10.60
10058;BMP180;5068;51.286;7.518;2023-11-21T02:57:46;98830.00;;;10.60
10058;BMP180;5068;51.286;7.518;2023-11-21T02:59:19;98826.00;;;10.60
10058;BMP180;5068;51.286;7.518;2023-11-21T03:00:52;98821.00;;;10.60
10058;BMP180;5068;51.286;7.518;2023-11-21T03:02:26;98826.00;;;10.60
10058;BMP180;5068;51.286;7.518;2023-11-21T03:03:58;98817.00;;;10.60
10058;BMP180;5068;51.286;7.518;2023-11-21T03:05:32;98822.00;;;10.50
10058;BMP180;5068;51.286;7.518;2023-11-21T03:07:07;98819.00;;;10.50
10058;BMP180;5068;51.286;7.518;2023-11-21T03:08:39;98824.00;;;10.50
10058;BMP180;5068;51.286;7.518;2023-11-21T03:10:16;98825.00;;;10.50
10058;BMP180;5068;51.286;7.518;2023-11-21T03:11:48;98823.00;;;10.50
10058;BMP180;5068;51.286;7.518;2023-11-21T03:13:21;98837.00;;;10.50
10058;BMP180;5068;51.286;7.518;2023-11-21T03:14:54;98834.00;;;10.50
10058;BMP180;5068;51.286;7.518;2023-11-21T03:16:27;98832.00;;;10.50
10058;BMP180;5068;51.286;7.518;2023-11-21T03:17:59;98836.00;;;10.50
10058;BMP180;5068;51.286;7.518;2023-11-21T03:19:33;98839.00;;;10.50
10058;BMP180;5068;51.286;7.518;2023-11-21T03:21:06;98834.00;;;10.50
10058;BMP180;5068;51.286;7.518;2023-11-21T03:22:40;98835.00;;;10.50
10058;BMP180;5068;51.286;7.518;2023-11-21T03:24:13;98834.00;;;10.50
10058;BMP180;5068;51.286;7.518;2023-11-21T03:25:51;98844.00;;;10.50
10058;BMP180;5068;51.286;7.518;2023-11-21T03:27:23;98840.00;;;10.50
10058;BMP180;5068;51.286;7.518;2023-11-21T03:28:56;98844.00;;;10.50
10058;BMP180;5068;51.286;7.518;2023-11-21T03:30:28;98842.00;;;10.50
10058;BMP180;5068;51.286;7.518;2023-11-21T03:32:03;98845.00;;;10.50
10058;BMP180;5068;51.286;7.518;2023-11-21T03:33:36;98852.00;;;10.50
10058;BMP180;5068;51.286;7.518;2023-11-21T03:35:09;98856.00;;;10.50
10058;BMP180;5068;51.286;7.518;2023-11-21T03:36:42;98851.00;;;10.50
10058;BMP180;5068;51.286;7.518;2023-11-21T03:38:15;98863.00;;;10.50
10058;BMP180;5068;51.286;7.518;2023-11-21T03:39:48;98853.00;;;10.50
10058;BMP180;5068;51.286;7.518;2023-11-21T03:41:22;98854.00;;;10.50
10058;BMP180;5068;51.286;7.518;2023-11-21T03:42:54;98865.00;;;10.50
10058;BMP180;5068;51.286;7.518;2023-11-21T03:44:28;98858.00;;;10.50
10058;BMP180;5068;51.286;7.518;2023-11-21T03:46:00;98853.00;;;10.50
10058;BMP180;5068;51.286;7.518;2023-11-21T03:47:33;98848.00;;;10.50
10058;BMP180;5068;51.286;7.518;2023-11-21T03:49:06;98856.00;;;10.40
10058;BMP180;5068;51.286;7.518;2023-11-21T03:50:39;98861.00;;;10.40
10058;BMP180;5068;51.286;7.518;2023-11-21T03:52:11;98867.00;;;10.40
10058;BMP180;5068;51.286;7.518;2023-11-21T03:53:45;98869.00;;;10.40
10058;BMP180;5068;51.286;7.518;2023-11-21T03:55:17;98868.00;;;10.40
10058;BMP180;5068;51.286;7.518;2023-11-21T03:56:52;98867.00;;;10.40
10058;BMP180;5068;51.286;7.518;2023-11-21T03:58:24;98868.00;;;10.40
10058;BMP180;5068;51.286;7.518;2023-11-21T03:59:57;98872.00;;;10.40
10058;BMP180;5068;51.286;7.518;2023-11-21T04:01:30;98878.00;;;10.40
10058;BMP180;5068;51.286;7.518;2023-11-21T04:03:03;98879.00;;;10.40
10058;BMP180;5068;51.286;7.518;2023-11-21T04:04:35;98871.00;;;10.40
10058;BMP180;5068;51.286;7.518;2023-11-21T04:06:09;98883.00;;;10.40
10058;BMP180;5068;51.286;7.518;2023-11-21T04:07:42;98896.00;;;10.40
10058;BMP180;5068;51.286;7.518;2023-11-21T04:09:14;98891.00;;;10.40
10058;BMP180;5068;51.286;7.518;2023-11-21T04:10:48;98886.00;;;10.40
10058;BMP180;5068;51.286;7.518;2023-11-21T04:12:22;98890.00;;;10.40
10058;BMP180;5068;51.286;7.518;2023-11-21T04:13:55;98889.00;;;10.40
10058;BMP180;5068;51.286;7.518;2023-11-21T04:15:28;98895.00;;;10.40
10058;BMP180;5068;51.286;7.518;2023-11-21T04:17:00;98896.00;;;10.40
10058;BMP180;5068;51.286;7.518;2023-11-21T04:18:36;98896.00;;;10.40
10058;BMP180;5068;51.286;7.518;2023-11-21T04:20:10;98912.00;;;10.40
10058;BMP180;5068;51.286;7.518;2023-11-21T04:21:43;98902.00;;;10.40
10058;BMP180;5068;51.286;7.518;2023-11-21T04:23:16;98911.00;;;10.40
10058;BMP180;5068;51.286;7.518;2023-11-21T04:24:49;98907.00;;;10.40
10058;BMP180;5068;51.286;7.518;2023-11-21T04:26:21;98916.00;;;10.40
10058;BMP180;5068;51.286;7.518;2023-11-21T04:27:56;98915.00;;;10.40
10058;BMP180;5068;51.286;7.518;2023-11-21T04:29:28;98916.00;;;10.40
10058;BMP180;5068;51.286;7.518;2023-11-21T04:31:02;98920.00;;;10.40
10058;BMP180;5068;51.286;7.518;2023-11-21T04:32:34;98912.00;;;10.40
10058;BMP180;5068;51.286;7.518;2023-11-21T04:34:07;98910.00;;;10.40
10058;BMP180;5068;51.286;7.518;2023-11-21T04:35:40;98916.00;;;10.40
10058;BMP180;5068;51.286;7.518;2023-11-21T04:37:13;98904.00;;;10.40
10058;BMP180;5068;51.286;7.518;2023-11-21T04:38:46;98901.00;;;10.40
10058;BMP180;5068;51.286;7.518;2023-11-21T04:40:19;98907.00;;;10.40
10058;BMP180;5068;51.286;7.518;2023-11-21T04:41:52;98904.00;;;10.40
10058;BMP180;5068;51.286;7.518;2023-11-21T04:43:26;98906.00;;;10.40
10058;BMP180;5068;51.286;7.518;2023-11-21T04:44:59;98916.00;;;10.40
10058;BMP180;5068;51.286;7.518;2023-11-21T04:46:33;98916.00;;;10.40
10058;BMP180;5068;51.286;7.518;2023-11-21T04:48:06;98919.00;;;10.40
10058;BMP180;5068;51.286;7.518;2023-11-21T04:49:42;98923.00;;;10.40
10058;BMP180;5068;51.286;7.518;2023-11-21T04:51:15;98917.00;;;10.40
10058;BMP180;5068;51.286;7.518;2023-11-21T04:52:48;98918.00;;;10.40
10058;BMP180;5068;51.286;7.518;2023-11-21T04:54:21;98917.00;;;10.40
10058;BMP180;5068;51.286;7.518;2023-11-21T04:55:57;98922.00;;;10.40
10058;BMP180;5068;51.286;7.518;2023-11-21T04:57:30;98923.00;;;10.40
10058;BMP180;5068;51.286;7.518;2023-11-21T04:59:05;98917.00;;;10.40
10058;BMP180;5068;51.286;7.518;2023-11-21T05:00:38;98915.00;;;10.40
10058;BMP180;5068;51.286;7.518;2023-11-21T05:02:11;98920.00;;;10.40
10058;BMP180;5068;51.286;7.518;2023-11-21T05:04:04;98927.00;;;10.30
10058;BMP180;5068;51.286;7.518;2023-11-21T05:05:41;98920.00;;;10.30
10058;BMP180;5068;51.286;7.518;2023-11-21T05:07:14;98935.00;;;10.40
10058;BMP180;5068;51.286;7.518;2023-11-21T05:08:48;98931.00;;;10.30
10058;BMP180;5068;51.286;7.518;2023-11-21T05:10:21;98926.00;;;10.40
10058;BMP180;5068;51.286;7.518;2023-11-21T05:11:54;98926.00;;;10.40
10058;BMP180;5068;51.286;7.518;2023-11-21T05:13:28;98929.00;;;10.40
10058;BMP180;5068;51.286;7.518;2023-11-21T05:15:02;98931.00;;;10.40
10058;BMP180;5068;51.286;7.518;2023-11-21T05:16:39;98934.00;;;10.40
10058;BMP180;5068;51.286;7.518;2023-11-21T05:18:12;98933.00;;;10.40
10058;BMP180;5068;51.286;7.518;2023-11-21T05:19:46;98928.00;;;10.40
10058;BMP180;5068;51.286;7.518;2023-11-21T05:21:21;98936.00;;;10.40
10058;BMP180;5068;51.286;7.518;2023-11-21T05:22:54;98931.00;;;10.40
10058;BMP180;5068;51.286;7.518;2023-11-21T05:24:27;98934.00;;;10.40
10058;BMP180;5068;51.286;7.518;2023-11-21T05:26:00;98933.00;;;10.40
10058;BMP180;5068;51.286;7.518;2023-11-21T05:27:34;98936.00;;;10.40
10058;BMP180;5068;51.286;7.518;2023-11-21T05:29:06;98945.00;;;10.40
10058;BMP180;5068;51.286;7.518;2023-11-21T05:30:42;98935.00;;;10.40
10058;BMP180;5068;51.286;7.518;2023-11-21T05:32:14;98937.00;;;10.40
10058;BMP180;5068;51.286;7.518;2023-11-21T05:33:49;98944.00;;;10.40
10058;BMP180;5068;51.286;7.518;2023-11-21T05:35:22;98947.00;;;10.40
10058;BMP180;5068;51.286;7.518;2023-11-21T05:36:54;98943.00;;;10.40
10058;BMP180;5068;51.286;7.518;2023-11-21T05:38:30;98940.00;;;10.40
10058;BMP180;5068;51.286;7.518;2023-11-21T05:40:05;98947.00;;;10.40
10058;BMP180;5068;51.286;7.518;2023-11-21T05:41:38;98953.00;;;10.40
10058;BMP180;5068;51.286;7.518;2023-11-21T05:43:11;98955.00;;;10.40
10058;BMP180;5068;51.286;7.518;2023-11-21T05:44:44;98950.00;;;10.40
10058;BMP180;5068;51.286;7.518;2023-11-21T05:46:18;98958.00;;;10.40
10058;BMP180;5068;51.286;7.518;2023-11-21T05:47:52;98960.00;;;10.40
10058;BMP180;5068;51.286;7.518;2023-11-21T05:49:24;98961.00;;;10.40
10058;BMP180;5068;51.286;7.518;2023-11-21T05:50:58;98963.00;;;10.40
10058;BMP180;5068;51.286;7.518;2023-11-21T05:52:33;98962.00;;;10.40
10058;BMP180;5068;51.286;7.518;2023-11-21T05:54:06;98962.00;;;10.40
10058;BMP180;5068;51.286;7.518;2023-11-21T05:55:40;98973.00;;;10.40
10058;BMP180;5068;51.286;7.518;2023-11-21T05:57:13;98977.00;;;10.40
10058;BMP180;5068;51.286;7.518;2023-11-21T05:58:45;98978.00;;;10.50
10058;BMP180;5068;51.286;7.518;2023-11-21T06:00:20;98982.00;;;10.50
10058;BMP180;5068;51.286;7.518;2023-11-21T06:01:55;98975.00;;;10.50
10058;BMP180;5068;51.286;7.518;2023-11-21T06:03:28;98983.00;;;10.40
10058;BMP180;5068;51.286;7.518;2023-11-21T06:05:01;98978.00;;;10.40
10058;BMP180;5068;51.286;7.518;2023-11-21T06:06:36;98999.00;;;10.40
10058;BMP180;5068;51.286;7.518;2023-11-21T06:08:09;99005.00;;;10.40
10058;BMP180;5068;51.286;7.518;2023-11-21T06:09:42;99000.00;;;10.40
10058;BMP180;5068;51.286;7.518;2023-11-21T06:11:16;99002.00;;;10.50
10058;BMP180;5068;51.286;7.518;2023-11-21T06:12:49;99001.00;;;10.50
10058;BMP180;5068;51.286;7.518;2023-11-21T06:14:22;99008.00;;;10.50
10058;BMP180;5068;51.286;7.518;2023-11-21T06:15:55;99010.00;;;10.50
10058;BMP180;5068;51.286;7.518;2023-11-21T06:17:29;99007.00;;;10.50
10058;BMP180;5068;51.286;7.518;2023-11-21T06:19:02;99017.00;;;10.50
10058;BMP180;5068;51.286;7.518;2023-11-21T06:20:36;99019.00;;;10.50
10058;BMP180;5068;51.286;7.518;2023-11-21T06:22:10;99022.00;;;10.50
10058;BMP180;5068;51.286;7.518;2023-11-21T06:23:42;99033.00;;;10.50
10058;BMP180;5068;51.286;7.518;2023-11-21T06:25:16;99028.00;;;10.50
10058;BMP180;5068;51.286;7.518;2023-11-21T06:26:49;99030.00;;;10.50
10058;BMP180;5068;51.286;7.518;2023-11-21T06:28:22;99035.00;;;10.50
10058;BMP180;5068;51.286;7.518;2023-11-21T06:29:54;99022.00;;;10.50
10058;BMP180;5068;51.286;7.518;2023-11-21T06:31:29;99018.00;;;10.60
10058;BMP180;5068;51.286;7.518;2023-11-21T06:33:02;99023.00;;;10.60
10058;BMP180;5068;51.286;7.518;2023-11-21T06:34:36;99022.00;;;10.60
10058;BMP180;5068;51.286;7.518;2023-11-21T06:36:09;99023.00;;;10.60
10058;BMP180;5068;51.286;7.518;2023-11-21T06:37:43;99018.00;;;10.60
10058;BMP180;5068;51.286;7.518;2023-11-21T06:39:19;99015.00;;;10.60
10058;BMP180;5068;51.286;7.518;2023-11-21T06:40:54;99023.00;;;10.60
10058;BMP180;5068;51.286;7.518;2023-11-21T06:42:27;99015.00;;;10.60
10058;BMP180;5068;51.286;7.518;2023-11-21T06:44:01;99028.00;;;10.50
10058;BMP180;5068;51.286;7.518;2023-11-21T06:45:36;99026.00;;;10.60
10058;BMP180;5068;51.286;7.518;2023-11-21T06:47:10;99031.00;;;10.50
10058;BMP180;5068;51.286;7.518;2023-11-21T06:48:44;99036.00;;;10.50
10058;BMP180;5068;51.286;7.518;2023-11-21T06:50:18;99047.00;;;10.60
10058;BMP180;5068;51.286;7.518;2023-11-21T06:51:50;99035.00;;;10.60
10058;BMP180;5068;51.286;7.518;2023-11-21T06:53:23;99052.00;;;10.60
10058;BMP180;5068;51.286;7.518;2023-11-21T06:54:56;99059.00;;;10.60
10058;BMP180;5068;51.286;7.518;2023-11-21T06:56:30;99051.00;;;10.60
10058;BMP180;5068;51.286;7.518;2023-11-21T06:58:03;99059.00;;;10.60
10058;BMP180;5068;51.286;7.518;2023-11-21T06:59:37;99052.00;;;10.60
10058;BMP180;5068;51.286;7.518;2023-11-21T07:01:10;99059.00;;;10.60
10058;BMP180;5068;51.286;7.518;2023-11-21T07:02:42;99069.00;;;10.50
10058;BMP180;5068;51.286;7.518;2023-11-21T07:04:17;99063.00;;;10.60
10058;BMP180;5068;51.286;7.518;2023-11-21T07:05:50;99068.00;;;10.50
10058;BMP180;5068;51.286;7.518;2023-11-21T07:07:24;99063.00;;;10.50
10058;BMP180;5068;51.286;7.518;2023-11-21T07:08:56;99073.00;;;10.50
10058;BMP180;5068;51.286;7.518;2023-11-21T07:10:30;99069.00;;;10.50
10058;BMP180;5068;51.286;7.518;2023-11-21T07:12:04;99073.00;;;10.50
10058;BMP180;5068;51.286;7.518;2023-11-21T07:13:39;99079.00;;;10.50
10058;BMP180;5068;51.286;7.518;2023-11-21T07:15:11;99082.00;;;10.50
10058;BMP180;5068;51.286;7.518;2023-11-21T07:16:45;99075.00;;;10.50
10058;BMP180;5068;51.286;7.518;2023-11-21T07:18:17;99087.00;;;10.50
10058;BMP180;5068;51.286;7.518;2023-11-21T07:19:52;99085.00;;;10.60
10058;BMP180;5068;51.286;7.518;2023-11-21T07:21:24;99094.00;;;10.60
10058;BMP180;5068;51.286;7.518;2023-11-21T07:22:57;99101.00;;;10.60
10058;BMP180;5068;51.286;7.518;2023-11-21T07:24:30;99110.00;;;10.60
10058;BMP180;5068;51.286;7.518;2023-11-21T07:26:04;99098.00;;;10.60
10058;BMP180;5068;51.286;7.518;2023-11-21T07:27:41;99099.00;;;10.60
10058;BMP180;5068;51.286;7.518;2023-11-21T07:29:14;99106.00;;;10.60
10058;BMP180;5068;51.286;7.518;2023-11-21T07:30:46;99104.00;;;10.60
10058;BMP180;5068;51.286;7.518;2023-11-21T07:32:20;99094.00;;;10.60
10058;BMP180;5068;51.286;7.518;2023-11-21T07:33:53;99111.00;;;10.70
10058;BMP180;5068;51.286;7.518;2023-11-21T07:35:27;99117.00;;;10.70
10058;BMP180;5068;51.286;7.518;2023-11-21T07:37:01;99118.00;;;10.60
10058;BMP180;5068;51.286;7.518;2023-11-21T07:38:33;99112.00;;;10.60
10058;BMP180;5068;51.286;7.518;2023-11-21T07:40:08;99121.00;;;10.60
10058;BMP180;5068;51.286;7.518;2023-11-21T07:41:41;99110.00;;;10.60
10058;BMP180;5068;51.286;7.518;2023-11-21T07:43:20;99125.00;;;10.70
10058;BMP180;5068;51.286;7.518;2023-11-21T07:44:52;99119.00;;;10.70
10058;BMP180;5068;51.286;7.518;2023-11-21T07:46:26;99121.00;;;10.70
10058;BMP180;5068;51.286;7.518;2023-11-21T07:47:59;99119.00;;;10.70
10058;BMP180;5068;51.286;7.518;2023-11-21T07:49:32;99127.00;;;10.70
10058;BMP180;5068;51.286;7.518;2023-11-21T07:51:06;99124.00;;;10.70
10058;BMP180;5068;51.286;7.518;2023-11-21T07:52:40;99117.00;;;10.70
10058;BMP180;5068;51.286;7.518;2023-11-21T07:54:12;99124.00;;;10.70
10058;BMP180;5068;51.286;7.518;2023-11-21T07:55:46;99124.00;;;10.70
10058;BMP180;5068;51.286;7.518;2023-11-21T07:57:19;99118.00;;;10.70
10058;BMP180;5068;51.286;7.518;2023-11-21T07:58:52;99127.00;;;10.70
10058;BMP180;5068;51.286;7.518;2023-11-21T08:00:25;99121.00;;;10.70
10058;BMP180;5068;51.286;7.518;2023-11-21T08:02:02;99124.00;;;10.70
10058;BMP180;5068;51.286;7.518;2023-11-21T08:03:34;99134.00;;;10.70
10058;BMP180;5068;51.286;7.518;2023-11-21T08:05:08;99124.00;;;10.70
10058;BMP180;5068;51.286;7.518;2023-11-21T08:06:54;99128.00;;;10.70
10058;BMP180;5068;51.286;7.518;2023-11-21T08:08:27;99125.00;;;10.60
10058;BMP180;5068;51.286;7.518;2023-11-21T08:10:01;99133.00;;;10.70
10058;BMP180;5068;51.286;7.518;2023-11-21T08:11:33;99131.00;;;10.70
10058;BMP180;5068;51.286;7.518;2023-11-21T08:13:06;99134.00;;;10.70
10058;BMP180;5068;51.286;7.518;2023-11-21T08:14:41;99135.00;;;10.70
10058;BMP180;5068;51.286;7.518;2023-11-21T08:16:15;99134.00;;;10.70
10058;BMP180;5068;51.286;7.518;2023-11-21T08:17:49;99142.00;;;10.70
10058;BMP180;5068;51.286;7.518;2023-11-21T08:19:22;99150.00;;;10.70
10058;BMP180;5068;51.286;7.518;2023-11-21T08:20:57;99148.00;;;10.70
10058;BMP180;5068;51.286;7.518;2023-11-21T08:22:32;99145.00;;;10.70
10058;BMP180;5068;51.286;7.518;2023-11-21T08:24:05;99144.00;;;10.80
10058;BMP180;5068;51.286;7.518;2023-11-21T08:25:43;99144.00;;;10.80
10058;BMP180;5068;51.286;7.518;2023-11-21T08:27:16;99153.00;;;10.80
10058;BMP180;5068;51.286;7.518;2023-11-21T08:28:49;99156.00;;;10.80
10058;BMP180;5068;51.286;7.518;2023-11-21T08:30:21;99151.00;;;10.80
10058;BMP180;5068;51.286;7.518;2023-11-21T08:31:56;99157.00;;;10.80
10058;BMP180;5068;51.286;7.518;2023-11-21T08:33:29;99161.00;;;10.80
10058;BMP180;5068;51.286;7.518;2023-11-21T08:35:02;99166.00;;;10.80
10058;BMP180;5068;51.286;7.518;2023-11-21T08:36:35;99164.00;;;10.80
10058;BMP180;5068;51.286;7.518;2023-11-21T08:38:09;99178.00;;;10.80
10058;BMP180;5068;51.286;7.518;2023-11-21T08:39:43;99170.00;;;10.90
10058;BMP180;5068;51.286;7.518;2023-11-21T08:41:16;99176.00;;;10.90
10058;BMP180;5068;51.286;7.518;2023-11-21T08:42:49;99184.00;;;10.90
10058;BMP180;5068;51.286;7.518;2023-11-21T08:44:24;99192.00;;;10.90
10058;BMP180;5068;51.286;7.518;2023-11-21T08:45:57;99185.00;;;10.90
10058;BMP180;5068;51.286;7.518;2023-11-21T08:47:30;99180.00;;;10.90
10058;BMP180;5068;51.286;7.518;2023-11-21T08:49:03;99181.00;;;10.90
10058;BMP180;5068;51.286;7.518;2023-11-21T08:50:36;99185.00;;;11.00
10058;BMP180;5068;51.286;7.518;2023-11-21T08:52:09;99194.00;;;11.00
10058;BMP180;5068;51.286;7.518;2023-11-21T08:53:43;99195.00;;;11.00
10058;BMP180;5068;51.286;7.518;2023-11-21T08:55:17;99199.00;;;11.00
10058;BMP180;5068;51.286;7.518;2023-11-21T08:56:49;99207.00;;;11.10
10058;BMP180;5068;51.286;7.518;2023-11-21T08:58:22;99199.00;;;11.10
10058;BMP180;5068;51.286;7.518;2023-11-21T08:59:55;99207.00;;;11.10
10058;BMP180;5068;51.286;7.518;2023-11-21T09:01:28;99209.00;;;11.10
10058;BMP180;5068;51.286;7.518;2023-11-21T09:03:01;99202.00;;;11.20
10058;BMP180;5068;51.286;7.518;2023-11-21T09:04:35;99208.00;;;11.20
10058;BMP180;5068;51.286;7.518;2023-11-21T09:06:12;99209.00;;;11.20
10058;BMP180;5068;51.286;7.518;2023-11-21T09:07:44;99210.00;;;11.20